Time;durP1;ratioP1;P1;durP2;ratioP2;P2;SDS_P1;SDS_P2;PMS_P1;PMS_P2;Temp;Humidity;BMP_temperature;BMP_pressure;BME280_temperature;BME280_humidity;BME280_pressure;Samples;Min_cycle;Max_cycle;Signal;HPM_P1;HPM_P2
2021/05/13 00:02:48;;;;;;;8.85;2.55;;;;;;;19.24;47.50;101111.81;4850422;24;20059;-86
2021/05/13 00:33:42;;;;;;;7.25;2.40;;;;;;;19.17;47.52;101104.94;4789436;29;20151;-86
2021/05/13 00:36:08;;;;;;;8.70;2.30;;;;;;;19.15;47.65;101109.31;4788380;30;20063;-88
2021/05/13 00:41:55;;;;;;;9.35;2.65;;;;;;;19.17;47.61;101101.47;4785102;30;20468;-89
2021/05/13 00:44:21;;;;;;;8.20;2.60;;;;;;;19.16;47.66;101100.59;4765195;30;20028;-87
2021/05/13 01:02:59;;;;;;;9.70;3.00;;;;;;;19.08;47.81;101095.47;4892946;24;20068;-90
2021/05/13 01:05:54;;;;;;;8.82;2.80;;;;;;;19.09;47.85;101093.72;4769630;30;20051;-90
2021/05/13 01:11:43;;;;;;;7.35;2.53;;;;;;;19.03;47.83;101084.25;4844909;24;20066;-88
2021/05/13 01:17:39;;;;;;;9.43;2.58;;;;;;;19.07;47.68;101083.31;4847462;24;20074;-88
2021/05/13 01:20:11;;;;;;;7.75;2.40;;;;;;;19.11;47.64;101091.97;4803601;30;20042;-86
2021/05/13 01:29:18;;;;;;;7.28;2.72;;;;;;;19.11;47.54;101082.38;4974326;24;20089;-89
2021/05/13 01:48:21;;;;;;;6.30;2.70;;;;;;;19.10;47.63;101066.78;4574470;27;20058;-82
2021/05/13 01:50:49;;;;;;;6.60;2.55;;;;;;;19.06;47.84;101059.88;4768356;30;20067;-82
2021/05/13 01:53:21;;;;;;;6.93;2.58;;;;;;;19.11;47.60;101060.66;4766897;30;20171;-83
2021/05/13 01:55:47;;;;;;;6.50;2.80;;;;;;;19.07;47.85;101057.22;4781066;30;20028;-83
2021/05/13 01:58:13;;;;;;;6.93;2.33;;;;;;;19.07;47.89;101058.97;4768025;30;20035;-83
2021/05/13 02:03:29;;;;;;;7.40;2.85;;;;;;;19.07;47.57;101057.22;4147609;27;20070;-83
2021/05/13 02:12:21;;;;;;;7.07;2.72;;;;;;;19.07;47.80;101051.16;4802882;30;20053;-83
2021/05/13 02:43:55;;;;;;;7.35;2.90;;;;;;;18.97;47.71;101039.13;4827854;24;20100;-83
2021/05/13 02:46:21;;;;;;;7.82;2.83;;;;;;;19.00;47.69;101039.94;4773965;30;20048;-83
2021/05/13 03:37:42;;;;;;;6.50;2.20;;;;;;;18.88;47.67;101032.28;5038241;24;20078;-83
2021/05/13 04:30:46;;;;;;;6.18;1.80;;;;;;;18.89;47.48;100985.31;4798605;24;20060;-85
2021/05/13 04:33:12;;;;;;;3.95;1.77;;;;;;;18.93;47.35;100983.53;4754234;30;20074;-84
2021/05/13 04:35:38;;;;;;;7.20;2.08;;;;;;;18.94;47.62;100982.63;4785310;30;20080;-84
2021/05/13 04:38:03;;;;;;;4.50;1.90;;;;;;;18.92;47.28;100981.78;4754943;30;20612;-84
2021/05/13 04:40:29;;;;;;;5.93;1.75;;;;;;;18.96;47.57;100978.25;4755643;30;20122;-84
2021/05/13 04:46:17;;;;;;;5.57;2.00;;;;;;;18.99;47.38;100978.22;4790687;29;20108;-91
2021/05/13 04:51:46;;;;;;;5.65;2.30;;;;;;;19.01;47.38;100988.63;4829876;24;20130;-86
2021/05/13 04:54:14;;;;;;;7.03;2.30;;;;;;;19.00;47.22;100984.31;4785748;30;20044;-88
2021/05/13 05:06:32;;;;;;;4.75;2.03;;;;;;;19.45;46.35;100993.25;4779814;30;20046;-91
2021/05/13 05:08:58;;;;;;;6.47;2.10;;;;;;;19.71;45.46;100982.44;4759333;30;20032;-92
2021/05/13 05:11:23;;;;;;;8.20;2.75;;;;;;;19.96;45.45;100982.00;4742683;30;20036;-92
2021/05/13 05:13:49;;;;;;;6.85;2.40;;;;;;;20.11;45.11;100979.13;4755387;30;20085;-89
2021/05/13 05:16:16;;;;;;;5.28;2.35;;;;;;;20.23;44.70;100975.44;4741287;30;20042;-93
2021/05/13 05:18:41;;;;;;;5.63;2.08;;;;;;;20.40;44.33;100976.88;4741580;30;20039;-90
2021/05/13 05:21:07;;;;;;;4.75;2.30;;;;;;;20.48;44.26;100977.59;4740615;30;20139;-91
2021/05/13 05:23:32;;;;;;;4.43;2.05;;;;;;;20.67;43.92;100973.75;4743216;30;20118;-89
2021/05/13 05:25:58;;;;;;;6.10;2.00;;;;;;;20.77;44.12;100974.41;4773292;30;20040;-89
2021/05/13 05:28:24;;;;;;;3.78;1.90;;;;;;;20.91;44.04;100977.63;4757565;30;20028;-89
2021/05/13 05:30:50;;;;;;;4.93;2.13;;;;;;;21.06;43.43;100970.34;4772648;30;20032;-86
2021/05/13 05:33:15;;;;;;;5.57;2.13;;;;;;;21.15;43.06;100955.28;4771612;30;20445;-88
2021/05/13 05:35:41;;;;;;;5.28;2.28;;;;;;;21.26;43.29;100956.81;4771329;30;20088;-88
2021/05/13 05:38:07;;;;;;;4.70;1.95;;;;;;;21.42;42.85;100965.19;4756156;30;20036;-87
2021/05/13 05:40:33;;;;;;;5.88;2.10;;;;;;;21.45;42.72;100958.13;4756119;30;20043;-86
2021/05/13 05:42:59;;;;;;;6.55;2.40;;;;;;;21.46;42.71;100953.75;4771661;30;20042;-86
2021/05/13 05:45:25;;;;;;;4.97;1.90;;;;;;;21.66;42.45;100956.72;4771157;30;20114;-89
2021/05/13 05:47:59;;;;;;;6.13;2.17;;;;;;;22.05;41.45;100943.50;4755017;30;20039;-88
2021/05/13 05:50:32;;;;;;;4.80;2.20;;;;;;;22.21;41.14;100946.59;4755270;30;20430;-87
2021/05/13 05:52:58;;;;;;;6.25;1.95;;;;;;;22.26;41.06;100938.63;4741185;30;20085;-88
2021/05/13 05:55:24;;;;;;;5.45;1.88;;;;;;;22.10;41.27;100941.66;4740951;30;20127;-87
2021/05/13 05:57:50;;;;;;;4.25;1.88;;;;;;;22.45;40.45;100937.22;4755068;30;20473;-88
2021/05/13 06:00:16;;;;;;;4.72;2.10;;;;;;;22.59;40.27;100940.28;4770932;29;20055;-86
2021/05/13 06:02:41;;;;;;;6.15;2.38;;;;;;;22.77;39.27;100944.13;4791543;30;20046;-87
2021/05/13 06:05:07;;;;;;;4.53;2.10;;;;;;;22.98;39.28;100941.78;4791569;30;20035;-85
2021/05/13 06:07:33;;;;;;;5.00;1.80;;;;;;;23.08;39.10;100937.13;4776521;30;20479;-83
2021/05/13 06:09:59;;;;;;;3.70;1.50;;;;;;;23.11;39.16;100950.19;4791343;30;20055;-86
2021/05/13 06:12:24;;;;;;;4.20;1.85;;;;;;;23.19;39.11;100946.41;4791729;30;20023;-86
2021/05/13 06:14:50;;;;;;;5.97;1.95;;;;;;;23.35;38.67;100945.94;4791143;30;20139;-83
2021/05/13 06:17:16;;;;;;;5.22;2.10;;;;;;;23.53;38.67;100939.22;4791259;30;20035;-86
2021/05/13 06:19:41;;;;;;;5.20;1.80;;;;;;;23.42;38.81;100936.94;4794610;30;20042;-85
2021/05/13 06:22:07;;;;;;;8.43;3.45;;;;;;;23.08;39.80;100940.66;4791531;29;20038;-85
2021/05/13 06:24:32;;;;;;;11.20;3.72;;;;;;;22.66;40.48;100934.88;4791210;30;20551;-84
2021/05/13 06:27:00;;;;;;;8.60;3.38;;;;;;;22.66;40.74;100938.34;4792657;30;20031;-84
2021/05/13 06:29:29;;;;;;;9.85;3.17;;;;;;;22.63;40.65;100933.22;4793160;29;20073;-85
2021/05/13 06:31:56;;;;;;;7.80;2.75;;;;;;;22.61;40.48;100929.78;4792953;30;20046;-84
2021/05/13 06:34:22;;;;;;;6.78;3.22;;;;;;;22.76;39.96;100925.84;4803427;24;20067;-85
2021/05/13 06:36:47;;;;;;;9.65;2.80;;;;;;;22.83;39.69;100926.50;4786658;30;20392;-84
2021/05/13 06:39:13;;;;;;;5.45;2.63;;;;;;;22.91;39.10;100933.25;4793165;30;20055;-84
2021/05/13 06:41:42;;;;;;;5.22;2.80;;;;;;;22.82;39.09;100923.03;4790925;30;20094;-85
2021/05/13 06:44:08;;;;;;;5.47;2.67;;;;;;;23.04;38.23;100930.25;4779156;30;20042;-85
2021/05/13 06:46:34;;;;;;;5.65;2.70;;;;;;;22.94;38.75;100920.03;4777537;30;20042;-85
2021/05/13 06:48:59;;;;;;;8.18;3.40;;;;;;;23.23;38.23;100927.94;4776915;30;20032;-84
2021/05/13 06:51:25;;;;;;;6.57;2.45;;;;;;;23.16;38.23;100930.75;4775373;30;20032;-84
2021/05/13 06:53:50;;;;;;;5.30;2.47;;;;;;;23.09;38.95;100928.38;4776493;30;20031;-84
2021/05/13 06:56:16;;;;;;;6.68;2.63;;;;;;;23.11;38.88;100922.16;4775720;30;20024;-84
2021/05/13 06:58:42;;;;;;;6.38;2.25;;;;;;;23.27;39.22;100917.28;4776676;30;20502;-84
2021/05/13 07:01:07;;;;;;;6.68;2.60;;;;;;;23.26;38.58;100912.09;4760572;30;20100;-85
2021/05/13 07:03:33;;;;;;;4.38;2.20;;;;;;;23.32;38.20;100910.13;4791461;30;20099;-85
2021/05/13 07:05:59;;;;;;;6.25;2.10;;;;;;;23.36;39.25;100924.00;4775847;30;20035;-83
2021/05/13 07:08:24;;;;;;;5.53;2.53;;;;;;;23.36;38.19;100914.34;4794345;30;20031;-84
2021/05/13 07:10:50;;;;;;;6.13;2.67;;;;;;;23.29;38.10;100918.09;4764584;30;20034;-85
2021/05/13 07:13:16;;;;;;;7.78;2.67;;;;;;;23.35;37.46;100909.16;4787411;30;20027;-84
2021/05/13 07:15:41;;;;;;;5.78;2.63;;;;;;;23.15;37.98;100912.44;4777817;30;20042;-84
2021/05/13 07:18:17;;;;;;;6.95;2.70;;;;;;;23.29;38.01;100915.47;4791651;30;20024;-86
2021/05/13 07:20:44;;;;;;;5.88;2.60;;;;;;;23.34;37.38;100912.69;4777643;30;20521;-87
2021/05/13 07:23:10;;;;;;;5.63;2.50;;;;;;;23.26;37.32;100917.34;4791410;30;20066;-85
2021/05/13 07:25:36;;;;;;;5.53;2.58;;;;;;;23.17;38.28;100916.72;4775112;30;20473;-86
2021/05/13 07:28:02;;;;;;;4.68;2.30;;;;;;;23.22;37.63;100920.97;4775126;30;20424;-88
2021/05/13 07:30:27;;;;;;;5.03;2.38;;;;;;;22.99;37.80;100919.88;4775057;30;20115;-86
2021/05/13 07:32:53;;;;;;;5.68;2.42;;;;;;;22.95;38.66;100919.13;4774792;30;20118;-90
2021/05/13 07:35:19;;;;;;;6.05;2.15;;;;;;;22.93;38.67;100914.81;4774826;30;20063;-89
2021/05/13 07:37:45;;;;;;;8.38;2.30;;;;;;;22.52;39.73;100916.94;4760048;30;20134;-88
2021/05/13 07:40:12;;;;;;;6.60;2.45;;;;;;;23.19;38.66;100920.16;4759734;30;20031;-89
2021/05/13 07:42:37;;;;;;;7.05;2.60;;;;;;;24.32;35.91;100916.34;4774642;30;20487;-90
2021/05/13 07:45:05;;;;;;;6.65;2.30;;;;;;;25.12;34.64;100906.28;4787336;30;20146;-86
2021/05/13 07:47:36;;;;;;;5.47;2.25;;;;;;;24.54;35.65;100906.81;4774549;30;20035;-86
2021/05/13 07:50:03;;;;;;;5.60;2.17;;;;;;;22.76;39.13;100917.97;4760094;30;20454;-85
2021/05/13 07:52:28;;;;;;;6.25;2.10;;;;;;;22.24;41.39;100922.09;4774332;30;20059;-89
2021/05/13 07:54:57;;;;;;;7.13;2.30;;;;;;;22.12;41.96;100920.63;4759448;30;20509;-87
2021/05/13 07:57:22;;;;;;;6.15;2.13;;;;;;;22.07;43.19;100914.66;4790554;30;20031;-84
2021/05/13 07:59:47;;;;;;;6.50;2.17;;;;;;;22.00;42.95;100907.88;4773860;30;20031;-86
2021/05/13 08:02:13;;;;;;;4.13;1.42;;;;;;;22.00;43.40;100916.59;4782824;30;20019;-86
2021/05/13 08:04:42;;;;;;;3.08;1.42;;;;;;;22.00;43.45;100918.34;4794962;30;20039;-90
2021/05/13 08:07:08;;;;;;;4.72;1.80;;;;;;;21.98;43.89;100916.63;4781283;30;20035;-90
2021/05/13 08:09:36;;;;;;;3.75;1.38;;;;;;;21.96;44.05;100920.19;4787902;30;20368;-86
2021/05/13 08:12:03;;;;;;;4.05;1.42;;;;;;;21.92;44.11;100916.78;4786931;30;20054;-86
2021/05/13 08:14:31;;;;;;;3.97;1.70;;;;;;;21.92;44.49;100915.91;4779620;30;20115;-87
2021/05/13 08:17:00;;;;;;;4.70;1.88;;;;;;;21.91;44.16;100912.44;4776695;30;20028;-86
2021/05/13 08:19:25;;;;;;;3.17;1.60;;;;;;;21.85;44.37;100909.13;4774306;30;20499;-85
2021/05/13 08:21:51;;;;;;;3.05;1.50;;;;;;;21.85;44.19;100919.59;4774029;30;20069;-88
2021/05/13 08:24:16;;;;;;;3.88;1.50;;;;;;;21.83;44.50;100926.66;4774158;30;20027;-88
2021/05/13 08:26:41;;;;;;;3.75;1.63;;;;;;;21.78;44.73;100918.91;4773721;30;20043;-90
2021/05/13 08:29:07;;;;;;;4.72;1.65;;;;;;;21.77;44.61;100915.44;4773849;30;20028;-88
2021/05/13 08:31:32;;;;;;;4.57;1.65;;;;;;;21.75;44.56;100924.22;4774622;30;20118;-90
2021/05/13 08:33:57;;;;;;;3.25;1.50;;;;;;;21.72;44.49;100911.19;4773848;30;20073;-90
2021/05/13 08:36:23;;;;;;;3.35;1.50;;;;;;;21.72;44.49;100924.28;4774617;30;20126;-91
2021/05/13 08:38:48;;;;;;;4.20;1.38;;;;;;;21.67;44.45;100919.19;4775280;30;20035;-88
2021/05/13 08:41:16;;;;;;;3.05;1.38;;;;;;;21.67;44.79;100913.94;4778340;30;20035;-87
2021/05/13 08:43:49;;;;;;;3.72;1.52;;;;;;;21.66;44.81;100914.81;4760694;30;20396;-89
2021/05/13 08:46:16;;;;;;;4.47;1.35;;;;;;;21.62;44.96;100920.19;4774964;30;20384;-91
2021/05/13 08:48:42;;;;;;;4.47;1.60;;;;;;;21.61;44.46;100915.84;4774641;30;20078;-89
2021/05/13 08:51:08;;;;;;;3.90;1.75;;;;;;;21.62;44.89;100918.41;4775404;30;20038;-88
2021/05/13 08:53:45;;;;;;;4.50;1.63;;;;;;;;;;4798324;29;20027;-92
2021/05/13 08:56:10;;;;;;;4.07;1.50;;;;;;;21.52;45.25;100911.72;4794515;30;20030;-90
2021/05/13 08:58:36;;;;;;;3.55;1.17;;;;;;;21.48;45.22;100910.06;4796749;29;20023;-89
2021/05/13 09:01:02;;;;;;;3.75;1.55;;;;;;;21.48;45.27;100910.06;4778182;30;20436;-89
2021/05/13 09:04:08;;;;;;;3.38;1.70;;;;;;;21.47;45.51;100911.81;4777084;30;20019;-91
2021/05/13 09:10:15;;;;;;;4.75;1.27;;;;;;;21.40;45.80;100904.13;4801353;30;20054;-89
2021/05/13 09:12:53;;;;;;;2.65;1.30;;;;;;;21.36;45.58;100898.97;4787781;30;20068;-92
2021/05/13 09:38:34;;;;;;;4.13;1.48;;;;;;;21.21;46.21;100898.44;5332457;24;20091;-91
2021/05/13 09:41:25;;;;;;;4.72;1.10;;;;;;;21.22;46.15;100890.56;4783233;30;20059;-88
2021/05/13 09:43:51;;;;;;;4.53;1.38;;;;;;;21.11;46.20;100882.97;4802756;29;20494;-93
2021/05/13 09:46:34;;;;;;;3.53;1.45;;;;;;;21.11;46.55;100885.59;4792792;30;20035;-91
2021/05/13 09:49:01;;;;;;;5.68;1.70;;;;;;;21.07;46.18;100883.94;4793071;30;20063;-91
2021/05/13 09:51:36;;;;;;;2.60;1.27;;;;;;;21.07;46.36;100886.56;4791964;30;20520;-92
2021/05/13 10:04:27;;;;;;;2.50;1.10;;;;;;;21.10;46.72;100881.28;4723735;30;20518;-88
2021/05/13 10:06:54;;;;;;;3.25;1.40;;;;;;;21.08;46.88;100876.97;4785595;30;20088;-88
2021/05/13 10:09:20;;;;;;;2.70;1.20;;;;;;;21.09;47.01;100878.69;4790802;30;20031;-87
2021/05/13 10:11:51;;;;;;;2.95;1.20;;;;;;;21.08;46.89;100876.97;4790647;30;20031;-88
2021/05/13 10:14:19;;;;;;;2.95;1.30;;;;;;;21.10;46.90;100872.53;4790809;30;20620;-88
2021/05/13 10:16:47;;;;;;;5.40;1.92;;;;;;;21.09;45.97;100865.59;4791286;30;20035;-89
2021/05/13 10:19:17;;;;;;;2.92;1.70;;;;;;;21.07;45.41;100865.63;4790647;30;20483;-88
2021/05/13 10:21:43;;;;;;;4.10;1.88;;;;;;;21.03;45.96;100878.81;4792033;29;20039;-88
2021/05/13 10:24:12;;;;;;;5.82;1.92;;;;;;;21.03;45.35;100871.81;4806138;29;20042;-88
2021/05/13 10:26:39;;;;;;;4.43;1.75;;;;;;;20.97;45.34;100874.59;4775800;30;20035;-88
2021/05/13 10:29:23;;;;;;;5.45;2.00;;;;;;;20.96;44.24;100871.09;4790946;30;20042;-89
2021/05/13 10:32:15;;;;;;;6.63;2.53;;;;;;;20.96;43.80;100875.50;4793547;29;20035;-89
2021/05/13 10:34:40;;;;;;;4.85;2.20;;;;;;;20.94;44.55;100872.03;4791009;29;20043;-88
2021/05/13 10:37:25;;;;;;;5.32;2.40;;;;;;;20.91;44.77;100869.50;4791675;30;20031;-87
2021/05/13 10:40:10;;;;;;;7.10;2.38;;;;;;;20.96;44.12;100878.09;4791037;30;20063;-87
2021/05/13 10:42:38;;;;;;;7.20;2.70;;;;;;;20.96;43.98;100865.03;4792288;30;20043;-86
2021/05/13 10:45:25;;;;;;;9.10;3.03;;;;;;;20.91;43.81;100870.38;4791625;30;20055;-87
2021/05/13 10:48:25;;;;;;;5.82;2.60;;;;;;;20.90;43.96;100868.63;4792485;29;20143;-87
2021/05/13 10:51:07;;;;;;;8.57;2.70;;;;;;;20.87;43.72;100863.47;4806645;30;20172;-87
2021/05/13 10:53:37;;;;;;;6.63;2.47;;;;;;;20.86;44.04;100876.59;4802522;30;20383;-87
2021/05/13 10:56:12;;;;;;;8.13;2.95;;;;;;;20.82;43.64;100860.13;4802051;30;20031;-88
2021/05/13 10:59:04;;;;;;;7.70;2.85;;;;;;;20.85;43.90;100856.56;4802026;30;20036;-88
2021/05/13 11:01:40;;;;;;;7.45;2.70;;;;;;;20.82;43.96;100854.00;4808174;30;20031;-88
2021/05/13 11:04:24;;;;;;;7.10;3.17;;;;;;;20.82;43.96;100851.38;4812458;29;20015;-87
2021/05/13 11:06:49;;;;;;;6.30;2.75;;;;;;;20.79;43.74;100852.31;4796638;30;20476;-88
2021/05/13 11:12:19;;;;;;;6.40;2.67;;;;;;;20.80;43.81;100846.22;4793683;30;20028;-87
2021/05/13 11:20:29;;;;;;;9.55;2.33;;;;;;;20.78;43.71;100840.16;4792277;30;20063;-88
2021/05/13 11:23:14;;;;;;;5.05;2.30;;;;;;;20.78;43.44;100840.16;4792004;29;20092;-86
2021/05/13 11:25:45;;;;;;;5.90;2.03;;;;;;;20.77;43.61;100843.66;4790200;30;20031;-87
2021/05/13 11:28:29;;;;;;;4.72;2.03;;;;;;;20.80;43.56;100843.59;4791320;29;20039;-86
2021/05/13 11:31:05;;;;;;;5.75;2.00;;;;;;;20.77;43.58;100843.66;4790912;30;20126;-86
2021/05/13 11:33:44;;;;;;;4.60;2.03;;;;;;;20.76;42.83;100847.19;4791373;29;20091;-87
2021/05/13 11:36:12;;;;;;;3.55;1.90;;;;;;;20.81;43.33;100844.44;4791122;29;20438;-86
2021/05/13 11:38:38;;;;;;;5.63;2.00;;;;;;;20.79;43.43;100848.84;4760504;30;20036;-87
2021/05/13 11:41:04;;;;;;;6.00;1.80;;;;;;;20.79;43.60;100852.31;4761089;30;20507;-87
2021/05/13 11:43:32;;;;;;;3.90;1.70;;;;;;;20.79;43.21;100848.84;4790871;30;20101;-88
2021/05/13 11:46:00;;;;;;;4.50;1.80;;;;;;;20.80;43.54;100840.97;4789716;30;20104;-86
2021/05/13 11:48:27;;;;;;;5.70;1.92;;;;;;;20.83;43.26;100847.91;4790026;30;20536;-86
2021/05/13 11:50:57;;;;;;;3.72;2.00;;;;;;;20.80;43.24;100843.59;4789580;30;20387;-86
2021/05/13 11:53:24;;;;;;;7.07;2.10;;;;;;;20.79;43.32;100836.63;4789530;30;20043;-86
2021/05/13 11:55:50;;;;;;;6.13;2.20;;;;;;;20.82;43.11;100843.53;4790571;29;20039;-86
2021/05/13 11:58:54;;;;;;;4.35;1.98;;;;;;;20.85;42.69;100843.50;4791013;29;20023;-86
2021/05/13 12:01:27;;;;;;;3.60;1.50;;;;;;;20.86;43.09;100840.84;4788791;30;20031;-89
2021/05/13 12:03:55;;;;;;;4.50;1.90;;;;;;;20.87;43.27;100845.16;4789104;30;20035;-88
2021/05/13 12:06:21;;;;;;;4.70;1.90;;;;;;;20.88;43.15;100835.56;4789884;29;20031;-88
2021/05/13 12:08:49;;;;;;;5.20;2.25;;;;;;;20.88;42.63;100833.81;4774823;30;20038;-89
2021/05/13 12:11:26;;;;;;;7.22;2.05;;;;;;;20.92;42.47;100839.81;4774500;30;20047;-88
2021/05/13 12:13:55;;;;;;;6.05;1.75;;;;;;;20.93;42.63;100828.47;4788471;30;20032;-88
2021/05/13 12:16:22;;;;;;;4.18;1.75;;;;;;;20.91;42.91;100830.28;4790037;29;20383;-86
2021/05/13 12:18:55;;;;;;;4.53;1.70;;;;;;;20.92;42.53;100829.38;4788710;30;20038;-88
2021/05/13 12:21:21;;;;;;;5.07;1.83;;;;;;;20.91;42.42;100831.13;4788949;30;20030;-86
2021/05/13 12:23:48;;;;;;;4.88;2.20;;;;;;;20.87;42.21;100815.53;4788277;30;20365;-85
2021/05/13 12:26:26;;;;;;;3.80;1.38;;;;;;;20.88;43.19;100819.88;4790171;29;20051;-87
2021/05/13 12:28:54;;;;;;;5.88;2.20;;;;;;;20.91;42.62;100825.03;4789723;29;20027;-86
2021/05/13 12:31:29;;;;;;;4.32;1.95;;;;;;;20.93;42.76;100823.25;4788773;30;20039;-87
2021/05/13 12:33:55;;;;;;;4.43;1.88;;;;;;;20.90;42.33;100821.53;4789106;29;20047;-87
2021/05/13 12:36:21;;;;;;;4.57;1.70;;;;;;;20.90;41.99;100818.94;4774262;30;20042;-85
2021/05/13 12:38:46;;;;;;;5.65;1.60;;;;;;;20.92;43.35;100822.38;4760472;30;20031;-86
2021/05/13 12:41:17;;;;;;;4.78;1.83;;;;;;;20.92;42.10;100816.28;4773744;30;20418;-87
2021/05/13 12:43:43;;;;;;;4.22;1.65;;;;;;;20.93;42.28;100820.63;4788303;30;20047;-87
2021/05/13 12:46:27;;;;;;;3.60;1.70;;;;;;;20.94;42.96;100814.50;4788052;30;20034;-86
2021/05/13 12:48:53;;;;;;;3.30;1.23;;;;;;;20.95;42.76;100811.84;4788168;30;20131;-87
2021/05/13 12:51:24;;;;;;;6.15;1.92;;;;;;;20.96;42.47;100813.56;4788145;30;20058;-87
2021/05/13 12:53:57;;;;;;;4.63;2.00;;;;;;;20.96;43.21;100812.69;4789104;29;20028;-85
2021/05/13 12:56:31;;;;;;;3.65;1.70;;;;;;;20.96;42.85;100812.69;4788089;30;20031;-86
2021/05/13 12:59:12;;;;;;;4.60;2.15;;;;;;;20.95;42.53;100805.75;4788165;30;20028;-86
2021/05/13 13:01:40;;;;;;;6.50;1.73;;;;;;;20.95;43.56;100804.00;4807570;30;20033;-84
2021/05/13 13:04:07;;;;;;;6.00;1.95;;;;;;;20.96;42.66;100802.25;4799550;30;20108;-85
2021/05/13 13:06:55;;;;;;;4.80;1.90;;;;;;;20.97;43.01;100801.34;4789298;30;20104;-87
2021/05/13 13:09:37;;;;;;;4.50;1.63;;;;;;;20.98;42.90;100808.28;4789411;29;20023;-86
2021/05/13 13:12:08;;;;;;;5.10;2.08;;;;;;;20.95;43.40;100804.00;4788550;29;20035;-86
2021/05/13 13:14:40;;;;;;;6.18;1.63;;;;;;;20.94;43.56;100794.41;4758486;30;20038;-88
2021/05/13 13:17:19;;;;;;;5.88;1.95;;;;;;;20.97;42.59;100796.13;4773299;30;20031;-88
2021/05/13 13:20:02;;;;;;;5.70;2.10;;;;;;;21.02;43.44;100793.41;4788777;29;20118;-88
2021/05/13 13:22:28;;;;;;;3.42;1.60;;;;;;;21.01;43.18;100796.88;4787221;30;20039;-85
2021/05/13 13:25:13;;;;;;;3.72;1.60;;;;;;;21.02;43.37;100794.25;4787256;30;20100;-85
2021/05/13 13:27:41;;;;;;;4.03;1.88;;;;;;;21.02;43.03;100793.41;4787326;30;20035;-84
2021/05/13 13:30:13;;;;;;;5.90;2.10;;;;;;;20.99;42.86;100788.22;4787239;30;20027;-86
2021/05/13 13:32:40;;;;;;;3.33;1.77;;;;;;;20.99;43.99;100786.50;4787369;30;20128;-89
2021/05/13 13:35:09;;;;;;;7.55;2.28;;;;;;;20.98;43.14;100791.75;4788782;29;20133;-87
2021/05/13 13:37:35;;;;;;;6.25;1.98;;;;;;;20.96;43.64;100782.16;4787651;30;20067;-86
2021/05/13 13:40:01;;;;;;;5.32;1.90;;;;;;;20.91;42.65;100788.41;4786664;30;20059;-88
2021/05/13 13:42:29;;;;;;;4.70;1.63;;;;;;;20.97;43.91;100788.28;4754936;30;20048;-85
2021/05/13 13:44:55;;;;;;;5.22;1.20;;;;;;;20.96;44.42;100778.69;4773670;30;20081;-85
2021/05/13 13:47:20;;;;;;;5.65;1.33;;;;;;;20.98;45.36;100779.53;4786352;29;20028;-82
2021/05/13 13:49:47;;;;;;;2.83;1.40;;;;;;;20.99;44.57;100783.88;4756626;30;20373;-86
2021/05/13 13:52:13;;;;;;;4.32;1.55;;;;;;;21.01;44.56;100778.56;4743084;30;20064;-88
2021/05/13 13:54:38;;;;;;;2.80;1.27;;;;;;;21.03;44.88;100785.47;4755877;30;20066;-86
2021/05/13 13:57:04;;;;;;;5.40;1.92;;;;;;;20.95;43.61;100775.22;4741409;30;20039;-84
2021/05/13 13:59:29;;;;;;;6.57;2.13;;;;;;;20.83;42.64;100778.13;4742645;30;20039;-87
2021/05/13 14:01:55;;;;;;;10.18;2.40;;;;;;;20.79;42.19;100770.41;4742727;30;20427;-86
2021/05/13 14:04:20;;;;;;;9.88;2.55;;;;;;;20.77;42.23;100767.81;4756848;30;20047;-86
2021/05/13 14:06:46;;;;;;;9.02;2.33;;;;;;;20.79;42.05;100767.78;4741000;30;20039;-86
2021/05/13 14:09:12;;;;;;;6.72;2.53;;;;;;;20.76;41.58;100766.09;4741366;30;20099;-86
2021/05/13 14:11:38;;;;;;;9.43;2.40;;;;;;;20.80;41.82;100762.53;4756548;30;20115;-92
2021/05/13 14:14:04;;;;;;;6.93;2.08;;;;;;;20.88;41.58;100762.31;4757802;30;20464;-89
2021/05/13 14:16:29;;;;;;;6.13;2.22;;;;;;;20.83;41.29;100764.19;4743675;30;20056;-91
2021/05/13 14:18:55;;;;;;;8.15;2.20;;;;;;;20.82;41.50;100760.72;4773026;30;20528;-91
2021/05/13 14:21:20;;;;;;;7.25;1.95;;;;;;;20.87;41.39;100765.84;4757876;30;20046;-87
2021/05/13 14:23:46;;;;;;;5.78;1.90;;;;;;;20.82;41.03;100750.28;4775260;30;20031;-86
2021/05/13 14:26:11;;;;;;;7.25;1.83;;;;;;;20.89;41.42;100753.59;4775062;30;20131;-91
2021/05/13 14:28:37;;;;;;;5.47;2.08;;;;;;;20.87;41.42;100760.63;4762825;30;20040;-90
2021/05/13 14:31:02;;;;;;;5.07;2.00;;;;;;;20.93;41.38;100756.09;4771395;30;20028;-92
2021/05/13 14:33:28;;;;;;;7.65;2.20;;;;;;;20.85;41.04;100752.81;4732683;30;20038;-86
2021/05/13 14:35:54;;;;;;;7.32;2.20;;;;;;;20.80;41.28;100752.06;4758294;30;20051;-85
2021/05/13 14:38:20;;;;;;;6.85;2.15;;;;;;;20.81;41.17;100755.53;4758451;30;20031;-89
2021/05/13 14:40:45;;;;;;;6.53;2.13;;;;;;;20.86;41.17;100748.41;4729594;30;20150;-87
2021/05/13 14:43:10;;;;;;;4.22;1.75;;;;;;;20.86;41.85;100732.72;4759085;30;20097;-88
2021/05/13 14:45:38;;;;;;;4.57;1.55;;;;;;;20.93;42.45;100750.88;4743689;30;20036;-86
2021/05/13 14:50:36;;;;;;;6.72;1.90;;;;;;;20.87;41.34;100744.91;4774577;30;20407;-86
2021/05/13 14:53:02;;;;;;;5.30;1.70;;;;;;;20.92;41.84;100737.81;4744965;30;20456;-86
2021/05/13 14:55:28;;;;;;;6.20;1.83;;;;;;;20.91;41.28;100734.34;4758888;30;20036;-90
2021/05/13 14:57:53;;;;;;;5.55;1.73;;;;;;;20.91;41.22;100731.72;4744574;30;20051;-85
2021/05/13 15:00:20;;;;;;;5.88;1.73;;;;;;;20.91;41.53;100733.50;4759197;30;20100;-85
2021/05/13 15:02:46;;;;;;;11.90;1.90;;;;;;;20.85;40.54;100731.88;4774017;30;20031;-83
2021/05/13 15:05:12;;;;;;;6.05;2.05;;;;;;;20.82;41.30;100731.97;4774168;30;20503;-89
2021/05/13 15:07:37;;;;;;;6.15;2.10;;;;;;;20.87;41.48;100734.47;4757798;30;20435;-87
2021/05/13 15:10:03;;;;;;;4.57;1.70;;;;;;;20.93;43.08;100739.53;4757029;30;20035;-85
2021/05/13 15:12:28;;;;;;;7.05;2.03;;;;;;;20.87;41.93;100739.69;4758255;30;20040;-86
2021/05/13 15:14:54;;;;;;;4.20;1.90;;;;;;;20.86;42.52;100724.88;4773842;30;20119;-87
2021/05/13 15:17:20;;;;;;;6.10;1.70;;;;;;;20.86;41.96;100722.25;4773977;30;20036;-90
2021/05/13 15:19:48;;;;;;;6.47;1.70;;;;;;;20.85;42.06;100737.09;4756979;30;20039;-91
2021/05/13 15:22:13;;;;;;;5.13;1.80;;;;;;;20.87;41.99;100718.78;4756794;30;20092;-87
2021/05/13 15:24:38;;;;;;;4.15;1.65;;;;;;;20.79;42.30;100720.72;4756954;30;20044;-86
2021/05/13 15:27:04;;;;;;;6.30;1.80;;;;;;;20.75;42.37;100720.78;4741925;30;20043;-86
2021/05/13 15:29:29;;;;;;;5.85;1.52;;;;;;;20.73;42.73;100719.97;4756848;30;20036;-85
2021/05/13 15:31:57;;;;;;;6.32;1.80;;;;;;;20.73;43.03;100722.59;4727684;30;20384;-87
2021/05/13 15:34:24;;;;;;;5.35;1.58;;;;;;;20.79;43.76;100718.94;4756147;30;20036;-87
2021/05/13 15:36:49;;;;;;;5.68;1.65;;;;;;;20.75;43.53;100726.03;4758278;30;20032;-86
2021/05/13 15:39:14;;;;;;;5.50;1.70;;;;;;;20.75;43.02;100733.88;4758049;30;20058;-86
2021/05/13 15:41:40;;;;;;;9.05;1.70;;;;;;;20.76;43.19;100737.34;4772661;30;20044;-85
2021/05/13 15:44:06;;;;;;;8.20;1.85;;;;;;;20.78;43.14;100730.31;4756299;30;20044;-83
2021/05/13 15:46:31;;;;;;;6.43;1.83;;;;;;;20.84;43.17;100732.78;4756296;30;20239;-88
2021/05/13 15:48:57;;;;;;;6.25;1.77;;;;;;;20.80;43.29;100725.06;4756053;30;20036;-86
2021/05/13 15:51:22;;;;;;;7.85;1.85;;;;;;;20.76;42.56;100724.25;4772373;30;20028;-84
2021/05/13 15:53:47;;;;;;;6.18;1.95;;;;;;;20.72;43.19;100722.63;4772499;30;20564;-85
2021/05/13 15:56:14;;;;;;;5.10;1.60;;;;;;;20.63;43.03;100726.31;4771897;30;20036;-87
2021/05/13 15:58:39;;;;;;;7.63;1.80;;;;;;;20.75;43.69;100719.91;4772798;30;20028;-84
2021/05/13 16:01:07;;;;;;;4.25;1.50;;;;;;;20.68;43.15;100720.97;4772238;30;20050;-87
2021/05/13 16:03:33;;;;;;;6.28;1.67;;;;;;;20.70;43.63;100716.56;4741844;30;20047;-86
2021/05/13 16:05:58;;;;;;;4.97;1.70;;;;;;;20.75;43.59;100715.56;4756165;30;20050;-87
2021/05/13 16:08:24;;;;;;;4.97;1.52;;;;;;;20.76;43.34;100721.66;4756467;30;20040;-86
2021/05/13 16:14:17;;;;;;;4.97;1.63;;;;;;;20.73;43.64;100712.13;4781966;30;20103;-88
2021/05/13 16:30:32;;;;;;;6.50;1.60;;;;;;;20.52;43.63;100708.25;4735287;30;20040;-87
2021/05/13 16:32:57;;;;;;;3.10;1.30;;;;;;;20.53;43.88;100716.94;4735056;30;20043;-90